Time,TemperatureF,DewpointF,PressureIn,WindDirection,WindDirectionDegrees,WindSpeedMPH,WindSpeedGustMPH,Humidity,HourlyPrecipIn,Conditions,Clouds,dailyrainin,SoftwareType,DateUTC
2013-08-16 00:13:00,62.0,52.0,30.17,WSW,257,3.0,9.0,69,0.00,,,0.00,,2013-08-16 04:13:00,
2013-08-16 00:23:00,62.0,52.0,30.17,SW,219,3.0,8.0,71,0.00,,,0.00,,2013-08-16 04:23:00,
2013-08-16 00:42:00,62.0,53.0,30.17,SW,214,3.0,10.0,72,0.00,,,0.00,,2013-08-16 04:42:00,
2013-08-16 00:53:00,61.0,52.0,30.17,West,270,2.0,7.0,73,0.00,,,0.00,,2013-08-16 04:53:00,
2013-08-16 01:12:00,61.0,52.0,30.17,WSW,248,3.0,10.0,73,0.00,,,0.00,,2013-08-16 05:12:00,
2013-08-16 01:22:00,61.0,53.0,30.17,SW,222,3.0,8.0,74,0.00,,,0.00,,2013-08-16 05:22:00,
2013-08-16 01:42:00,61.0,53.0,30.16,WSW,237,2.0,8.0,75,0.00,,,0.00,,2013-08-16 05:42:00,
2013-08-16 02:00:00,60.0,52.0,30.16,SW,225,3.0,8.0,76,0.00,,,0.00,,2013-08-16 06:00:00,
2013-08-16 03:00:00,59.0,52.0,30.16,West,273,1.0,6.0,79,0.00,,,0.00,,2013-08-16 07:00:00,
2013-08-16 03:11:00,59.0,53.0,30.16,SW,222,2.0,8.0,80,0.00,,,0.00,,2013-08-16 07:11:00,
2013-08-16 03:21:00,59.0,53.0,30.17,SW,227,2.0,6.0,81,0.00,,,0.00,,2013-08-16 07:21:00,
2013-08-16 03:42:00,58.0,53.0,30.16,SW,232,3.0,8.0,82,0.00,,,0.00,,2013-08-16 07:42:00,
2013-08-16 03:52:00,58.0,53.0,30.16,WSW,245,3.0,10.0,83,0.00,,,0.00,,2013-08-16 07:52:00,
2013-08-16 04:11:00,58.0,53.0,30.16,West,270,2.0,9.0,83,0.00,,,0.00,,2013-08-16 08:11:00,
2013-08-16 04:21:00,58.0,53.0,30.17,SW,223,1.0,6.0,84,0.00,,,0.00,,2013-08-16 08:21:00,
2013-08-16 04:42:00,58.0,53.0,30.17,SW,223,1.0,6.0,83,0.00,,,0.00,,2013-08-16 08:42:00,
2013-08-16 04:52:00,57.0,52.0,30.17,SW,236,1.0,5.0,84,0.00,,,0.00,,2013-08-16 08:52:00,
2013-08-16 05:11:00,57.0,53.0,30.17,SW,221,0.0,5.0,85,0.00,,,0.00,,2013-08-16 09:11:00,
2013-08-16 05:21:00,57.0,53.0,30.17,SSW,203,1.0,8.0,85,0.00,,,0.00,,2013-08-16 09:21:00,
2013-08-16 05:42:00,56.0,52.0,30.17,SW,234,0.0,7.0,85,0.00,,,0.00,,2013-08-16 09:42:00,
2013-08-16 05:53:00,56.0,52.0,30.18,South,190,2.0,6.0,85,0.00,,,0.00,,2013-08-16 09:53:00,
2013-08-16 06:13:00,56.0,52.0,30.18,WSW,245,1.0,5.0,85,0.00,,,0.00,,2013-08-16 10:13:00,
2013-08-16 06:23:00,56.0,52.0,30.19,West,281,2.0,6.0,85,0.00,,,0.00,,2013-08-16 10:23:00,
2013-08-16 06:42:00,56.0,52.0,30.19,SW,222,2.0,5.0,85,0.00,,,0.00,,2013-08-16 10:42:00,
2013-08-16 06:52:00,56.0,52.0,30.19,SW,233,1.0,5.0,85,0.00,,,0.00,,2013-08-16 10:52:00,
2013-08-16 07:12:00,56.0,52.0,30.20,WSW,240,1.0,3.0,85,0.00,,,0.00,,2013-08-16 11:12:00,
2013-08-16 07:22:00,56.0,52.0,30.20,WSW,240,1.0,3.0,85,0.00,,,0.00,,2013-08-16 11:22:00,
2013-08-16 07:42:00,57.0,52.0,30.20,West,259,1.0,5.0,84,0.00,,,0.00,,2013-08-16 11:42:00,
2013-08-16 07:52:00,59.0,53.0,30.21,SW,228,1.0,5.0,80,0.00,,,0.00,,2013-08-16 11:52:00,
2013-08-16 08:12:00,60.0,53.0,30.21,SSW,200,1.0,4.0,77,0.00,,,0.00,,2013-08-16 12:12:00,
2013-08-16 08:21:00,60.0,52.0,30.21,WSW,256,1.0,3.0,76,0.00,,,0.00,,2013-08-16 12:21:00,
2013-08-16 08:42:00,61.0,53.0,30.21,SW,234,0.0,4.0,75,0.00,,,0.00,,2013-08-16 12:42:00,
2013-08-16 08:52:00,62.0,54.0,30.22,WSW,246,0.0,3.0,74,0.00,,,0.00,,2013-08-16 12:52:00,
2013-08-16 09:11:00,63.0,53.0,30.21,SW,233,0.0,4.0,71,0.00,,,0.00,,2013-08-16 13:11:00,
2013-08-16 09:22:00,63.0,53.0,30.22,WNW,286,1.0,6.0,70,0.00,,,0.00,,2013-08-16 13:22:00,
2013-08-16 09:42:00,65.0,54.0,30.22,SW,225,1.0,7.0,68,0.00,,,0.00,,2013-08-16 13:42:00,
2013-08-16 09:53:00,66.0,54.0,30.22,SSW,210,1.0,5.0,65,0.00,,,0.00,,2013-08-16 13:53:00,
2013-08-16 10:11:00,68.0,54.0,30.22,West,259,0.0,5.0,61,0.00,,,0.00,,2013-08-16 14:11:00,
2013-08-16 10:22:00,70.0,54.0,30.22,SW,236,1.0,3.0,57,0.00,,,0.00,,2013-08-16 14:22:00,
2013-08-16 10:42:00,71.0,54.0,30.22,SW,231,2.0,6.0,55,0.00,,,0.00,,2013-08-16 14:42:00,
2013-08-16 10:52:00,72.0,54.0,30.22,SSW,203,1.0,10.0,54,0.00,,,0.00,,2013-08-16 14:52:00,
2013-08-16 11:12:00,72.0,52.0,30.22,West,273,4.0,9.0,49,0.00,,,0.00,,2013-08-16 15:12:00,
2013-08-16 11:22:00,73.0,53.0,30.22,SW,224,2.0,11.0,49,0.00,,,0.00,,2013-08-16 15:22:00,
2013-08-16 11:43:00,73.0,52.0,30.22,SW,227,3.0,8.0,48,0.00,,,0.00,,2013-08-16 15:43:00,
2013-08-16 11:56:00,74.0,52.0,30.22,WNW,294,3.0,7.0,46,0.00,,,0.00,,2013-08-16 15:56:00,
2013-08-16 12:13:00,73.0,53.0,30.22,WNW,303,4.0,8.0,49,0.00,,,0.00,,2013-08-16 16:13:00,
2013-08-16 12:23:00,75.0,53.0,30.22,West,269,2.0,8.0,47,0.00,,,0.00,,2013-08-16 16:23:00,
2013-08-16 12:43:00,75.0,53.0,30.22,SW,231,4.0,9.0,47,0.00,,,0.00,,2013-08-16 16:43:00,
2013-08-16 12:57:00,75.0,54.0,30.22,SSW,197,0.0,6.0,48,0.00,,,0.00,,2013-08-16 16:57:00,
2013-08-16 13:13:00,74.0,54.0,30.22,WNW,297,0.0,7.0,49,0.00,,,0.00,,2013-08-16 17:13:00,
2013-08-16 13:28:00,76.0,55.0,30.22,WNW,287,3.0,8.0,48,0.00,,,0.00,,2013-08-16 17:28:00,
2013-08-16 13:47:00,75.0,55.0,30.22,WNW,298,0.0,6.0,49,0.00,,,0.00,,2013-08-16 17:47:00,
2013-08-16 14:00:00,76.0,54.0,30.22,NNW,331,7.0,11.0,46,0.00,,,0.00,,2013-08-16 18:00:00,
2013-08-16 14:15:00,76.0,55.0,30.22,North,5,0.0,1.0,48,0.00,,,0.00,,2013-08-16 18:15:00,
2013-08-16 14:28:00,74.0,56.0,30.22,North,5,0.0,2.0,53,0.00,,,0.00,,2013-08-16 18:28:00,
2013-08-16 14:50:00,-999.0,-99.9,30.22,ENE,59,0.0,3.0,53,0.00,,,0.00,,2013-08-16 18:50:00,
2013-08-16 15:14:00,74.0,57.0,30.22,NE,36,1.0,4.0,55,0.00,,,0.00,,2013-08-16 19:14:00,
2013-08-16 15:25:00,73.0,56.0,30.22,East,81,0.0,2.0,56,0.00,,,0.00,,2013-08-16 19:25:00,
2013-08-16 15:46:00,73.0,57.0,30.21,NE,51,0.0,3.0,57,0.00,,,0.00,,2013-08-16 19:46:00,
2013-08-16 15:55:00,74.0,57.0,30.22,East,80,0.0,3.0,55,0.00,,,0.00,,2013-08-16 19:55:00,
2013-08-16 16:11:00,75.0,57.0,30.21,ENE,78,1.0,2.0,54,0.00,,,0.00,,2013-08-16 20:11:00,
2013-08-16 16:23:00,75.0,57.0,30.21,ENE,57,0.0,3.0,53,0.00,,,0.00,,2013-08-16 20:23:00,
2013-08-16 16:44:00,75.0,57.0,30.21,ESE,119,2.0,6.0,53,0.00,,,0.00,,2013-08-16 20:44:00,
2013-08-16 16:52:00,74.0,56.0,30.21,ENE,61,0.0,4.0,54,0.00,,,0.00,,2013-08-16 20:52:00,
2013-08-16 17:11:00,74.0,57.0,30.21,NE,55,0.0,4.0,55,0.00,,,0.00,,2013-08-16 21:11:00,
2013-08-16 17:25:00,74.0,56.0,30.21,NE,53,0.0,2.0,53,0.00,,,0.00,,2013-08-16 21:25:00,
2013-08-16 17:40:00,-999.0,-99.9,30.21,North,9,0.0,1.0,-999,0.00,,,0.00,,2013-08-16 21:40:00,
2013-08-16 17:53:00,75.0,57.0,30.21,East,88,0.0,3.0,54,0.00,,,0.00,,2013-08-16 21:53:00,
2013-08-16 18:13:00,74.0,56.0,30.21,East,95,0.0,3.0,54,0.00,,,0.00,,2013-08-16 22:13:00,
2013-08-16 18:24:00,74.0,56.0,30.22,East,95,0.0,1.0,54,0.00,,,0.00,,2013-08-16 22:24:00,
2013-08-16 18:43:00,74.0,57.0,30.22,East,95,0.0,3.0,56,0.00,,,0.00,,2013-08-16 22:43:00,
2013-08-16 18:52:00,73.0,56.0,30.22,East,95,0.0,1.0,56,0.00,,,0.00,,2013-08-16 22:52:00,
2013-08-16 19:12:00,73.0,57.0,30.22,East,95,0.0,0.0,57,0.00,,,0.00,,2013-08-16 23:12:00,
2013-08-16 19:23:00,73.0,58.0,30.22,East,95,0.0,0.0,59,0.00,,,0.00,,2013-08-16 23:23:00,
2013-08-16 19:42:00,73.0,58.0,30.22,East,95,0.0,0.0,60,0.00,,,0.00,,2013-08-16 23:42:00,
2013-08-16 19:52:00,73.0,58.0,30.22,East,95,0.0,0.0,60,0.00,,,0.00,,2013-08-16 23:52:00,
2013-08-16 20:12:00,72.0,58.0,30.22,East,95,0.0,0.0,62,0.00,,,0.00,,2013-08-17 00:12:00,
2013-08-16 20:21:00,71.0,58.0,30.23,East,95,0.0,0.0,63,0.00,,,0.00,,2013-08-17 00:21:00,
2013-08-16 20:42:00,71.0,58.0,30.23,East,95,0.0,0.0,64,0.00,,,0.00,,2013-08-17 00:42:00,
2013-08-16 20:52:00,70.0,58.0,30.23,East,95,0.0,0.0,65,0.00,,,0.00,,2013-08-17 00:52:00,
2013-08-16 21:11:00,69.0,58.0,30.23,East,95,0.0,0.0,68,0.00,,,0.00,,2013-08-17 01:11:00,
2013-08-16 21:21:00,68.0,58.0,30.24,East,95,0.0,0.0,70,0.00,,,0.00,,2013-08-17 01:21:00,
2013-08-16 21:42:00,68.0,58.0,30.24,East,95,0.0,0.0,71,0.00,,,0.00,,2013-08-17 01:42:00,
2013-08-16 21:52:00,67.0,58.0,30.24,East,95,0.0,0.0,72,0.00,,,0.00,,2013-08-17 01:52:00,
2013-08-16 22:11:00,67.0,58.0,30.24,East,95,0.0,0.0,74,0.00,,,0.00,,2013-08-17 02:11:00,
2013-08-16 22:21:00,66.0,58.0,30.25,East,95,0.0,0.0,75,0.00,,,0.00,,2013-08-17 02:21:00,
2013-08-16 22:42:00,66.0,58.0,30.24,East,95,0.0,0.0,76,0.00,,,0.00,,2013-08-17 02:42:00,
2013-08-16 22:52:00,65.0,58.0,30.25,East,95,0.0,0.0,78,0.00,,,0.00,,2013-08-17 02:52:00,
2013-08-16 23:11:00,65.0,58.0,30.25,East,95,0.0,0.0,79,0.00,,,0.00,,2013-08-17 03:11:00,
2013-08-16 23:22:00,64.0,58.0,30.25,East,95,0.0,0.0,80,0.00,,,0.00,,2013-08-17 03:22:00,
2013-08-16 23:43:00,64.0,58.0,30.25,East,95,0.0,0.0,82,0.00,,,0.00,,2013-08-17 03:43:00,
2013-08-16 23:53:00,63.0,58.0,30.25,East,95,0.0,0.0,83,0.00,,,0.00,,2013-08-17 03:53:00,